sensor_id;sensor_type;location;lat;lon;timestamp;P1;durP1;ratioP1;P2;durP2;ratioP2
22937;SDS011;11634;42.734;23.298;2022-11-20T00:01:12;7.07;;;4.10;;
22937;SDS011;11634;42.734;23.298;2022-11-20T00:03:39;8.00;;;4.22;;
22937;SDS011;11634;42.734;23.298;2022-11-20T00:06:07;7.35;;;4.93;;
22937;SDS011;11634;42.734;23.298;2022-11-20T00:08:34;6.13;;;4.68;;
22937;SDS011;11634;42.734;23.298;2022-11-20T00:11:07;9.32;;;4.57;;
22937;SDS011;11634;42.734;23.298;2022-11-20T00:13:38;6.10;;;3.00;;
22937;SDS011;11634;42.734;23.298;2022-11-20T00:16:10;7.07;;;3.28;;
22937;SDS011;11634;42.734;23.298;2022-11-20T00:18:37;5.93;;;2.72;;
22937;SDS011;11634;42.734;23.298;2022-11-20T00:21:05;2.75;;;2.30;;
22937;SDS011;11634;42.734;23.298;2022-11-20T00:23:34;2.55;;;1.90;;
22937;SDS011;11634;42.734;23.298;2022-11-20T00:26:03;4.00;;;2.47;;
22937;SDS011;11634;42.734;23.298;2022-11-20T00:28:56;4.65;;;1.40;;
22937;SDS011;11634;42.734;23.298;2022-11-20T00:31:23;3.15;;;1.80;;
22937;SDS011;11634;42.734;23.298;2022-11-20T00:33:50;4.90;;;1.70;;
22937;SDS011;11634;42.734;23.298;2022-11-20T00:36:16;3.58;;;1.98;;
22937;SDS011;11634;42.734;23.298;2022-11-20T00:38:43;3.45;;;1.70;;
22937;SDS011;11634;42.734;23.298;2022-11-20T00:41:11;5.15;;;1.90;;
22937;SDS011;11634;42.734;23.298;2022-11-20T00:43:38;5.60;;;1.90;;
22937;SDS011;11634;42.734;23.298;2022-11-20T00:46:13;4.57;;;1.50;;
22937;SDS011;11634;42.734;23.298;2022-11-20T00:48:41;2.88;;;1.45;;
22937;SDS011;11634;42.734;23.298;2022-11-20T00:51:07;3.42;;;1.10;;
22937;SDS011;11634;42.734;23.298;2022-11-20T00:53:33;2.70;;;1.10;;
22937;SDS011;11634;42.734;23.298;2022-11-20T00:56:00;2.97;;;1.20;;
22937;SDS011;11634;42.734;23.298;2022-11-20T00:58:36;2.80;;;1.45;;
22937;SDS011;11634;42.734;23.298;2022-11-20T01:01:07;3.83;;;1.23;;
22937;SDS011;11634;42.734;23.298;2022-11-20T01:03:33;3.22;;;0.90;;
22937;SDS011;11634;42.734;23.298;2022-11-20T01:06:04;4.70;;;1.40;;
22937;SDS011;11634;42.734;23.298;2022-11-20T01:08:31;3.20;;;1.15;;
22937;SDS011;11634;42.734;23.298;2022-11-20T01:10:59;3.75;;;1.30;;
22937;SDS011;11634;42.734;23.298;2022-11-20T01:13:26;1.95;;;0.98;;
22937;SDS011;11634;42.734;23.298;2022-11-20T01:16:15;3.78;;;1.17;;
22937;SDS011;11634;42.734;23.298;2022-11-20T01:18:44;3.03;;;1.08;;
22937;SDS011;11634;42.734;23.298;2022-11-20T01:21:12;1.50;;;0.90;;
22937;SDS011;11634;42.734;23.298;2022-11-20T01:23:41;4.15;;;1.10;;
22937;SDS011;11634;42.734;23.298;2022-11-20T01:26:12;1.98;;;0.85;;
22937;SDS011;11634;42.734;23.298;2022-11-20T01:28:39;2.53;;;1.33;;
22937;SDS011;11634;42.734;23.298;2022-11-20T01:33:44;4.35;;;0.82;;
22937;SDS011;11634;42.734;23.298;2022-11-20T01:36:10;6.43;;;1.88;;
22937;SDS011;11634;42.734;23.298;2022-11-20T01:38:36;1.95;;;0.90;;
22937;SDS011;11634;42.734;23.298;2022-11-20T01:41:02;1.35;;;0.90;;
22937;SDS011;11634;42.734;23.298;2022-11-20T01:43:28;2.90;;;0.90;;
22937;SDS011;11634;42.734;23.298;2022-11-20T01:46:01;1.42;;;0.70;;
22937;SDS011;11634;42.734;23.298;2022-11-20T01:48:50;1.52;;;0.82;;
22937;SDS011;11634;42.734;23.298;2022-11-20T01:51:29;2.55;;;0.88;;
22937;SDS011;11634;42.734;23.298;2022-11-20T01:54:02;1.38;;;0.80;;
22937;SDS011;11634;42.734;23.298;2022-11-20T01:56:33;2.08;;;0.90;;
22937;SDS011;11634;42.734;23.298;2022-11-20T01:59:03;4.22;;;1.17;;
22937;SDS011;11634;42.734;23.298;2022-11-20T02:01:32;2.45;;;1.05;;
22937;SDS011;11634;42.734;23.298;2022-11-20T02:03:58;3.70;;;0.88;;
22937;SDS011;11634;42.734;23.298;2022-11-20T02:09:35;4.03;;;1.08;;
22937;SDS011;11634;42.734;23.298;2022-11-20T02:12:01;2.38;;;0.93;;
22937;SDS011;11634;42.734;23.298;2022-11-20T02:14:26;3.05;;;1.00;;
22937;SDS011;11634;42.734;23.298;2022-11-20T02:16:53;1.98;;;0.90;;
22937;SDS011;11634;42.734;23.298;2022-11-20T02:19:30;1.25;;;0.75;;
22937;SDS011;11634;42.734;23.298;2022-11-20T02:22:00;2.38;;;0.85;;
22937;SDS011;11634;42.734;23.298;2022-11-20T02:24:30;2.22;;;0.95;;
22937;SDS011;11634;42.734;23.298;2022-11-20T02:27:04;2.00;;;0.70;;
22937;SDS011;11634;42.734;23.298;2022-11-20T02:32:17;1.05;;;0.82;;
22937;SDS011;11634;42.734;23.298;2022-11-20T02:34:53;1.20;;;0.70;;
22937;SDS011;11634;42.734;23.298;2022-11-20T02:37:19;5.97;;;0.88;;
22937;SDS011;11634;42.734;23.298;2022-11-20T02:39:46;1.73;;;0.80;;
22937;SDS011;11634;42.734;23.298;2022-11-20T02:42:14;1.88;;;0.95;;
22937;SDS011;11634;42.734;23.298;2022-11-20T02:44:40;2.00;;;0.90;;
22937;SDS011;11634;42.734;23.298;2022-11-20T02:47:05;3.20;;;0.95;;
22937;SDS011;11634;42.734;23.298;2022-11-20T02:49:31;2.25;;;1.13;;
22937;SDS011;11634;42.734;23.298;2022-11-20T02:51:56;2.22;;;1.20;;
22937;SDS011;11634;42.734;23.298;2022-11-20T02:54:22;2.85;;;1.17;;
22937;SDS011;11634;42.734;23.298;2022-11-20T02:56:48;3.40;;;1.00;;
22937;SDS011;11634;42.734;23.298;2022-11-20T02:59:14;4.05;;;1.17;;
22937;SDS011;11634;42.734;23.298;2022-11-20T03:01:39;2.78;;;1.17;;
22937;SDS011;11634;42.734;23.298;2022-11-20T03:04:05;2.90;;;1.20;;
22937;SDS011;11634;42.734;23.298;2022-11-20T03:06:30;3.15;;;1.40;;
22937;SDS011;11634;42.734;23.298;2022-11-20T03:08:56;4.70;;;1.27;;
22937;SDS011;11634;42.734;23.298;2022-11-20T03:11:22;4.28;;;1.38;;
22937;SDS011;11634;42.734;23.298;2022-11-20T03:13:47;3.60;;;1.25;;
22937;SDS011;11634;42.734;23.298;2022-11-20T03:16:14;4.13;;;1.38;;
22937;SDS011;11634;42.734;23.298;2022-11-20T03:18:41;7.13;;;1.85;;
22937;SDS011;11634;42.734;23.298;2022-11-20T03:21:07;4.85;;;1.27;;
22937;SDS011;11634;42.734;23.298;2022-11-20T03:23:34;4.20;;;1.30;;
22937;SDS011;11634;42.734;23.298;2022-11-20T03:26:17;3.05;;;1.20;;
22937;SDS011;11634;42.734;23.298;2022-11-20T03:28:48;6.43;;;1.45;;
22937;SDS011;11634;42.734;23.298;2022-11-20T03:31:15;4.13;;;1.42;;
22937;SDS011;11634;42.734;23.298;2022-11-20T03:33:42;7.38;;;1.45;;
22937;SDS011;11634;42.734;23.298;2022-11-20T03:36:09;2.15;;;1.30;;
22937;SDS011;11634;42.734;23.298;2022-11-20T03:38:36;6.32;;;1.38;;
22937;SDS011;11634;42.734;23.298;2022-11-20T03:41:03;5.03;;;1.70;;
22937;SDS011;11634;42.734;23.298;2022-11-20T03:43:31;4.20;;;1.45;;
22937;SDS011;11634;42.734;23.298;2022-11-20T03:45:57;4.00;;;0.98;;
22937;SDS011;11634;42.734;23.298;2022-11-20T03:48:22;2.78;;;1.02;;
22937;SDS011;11634;42.734;23.298;2022-11-20T03:50:48;3.15;;;1.15;;
22937;SDS011;11634;42.734;23.298;2022-11-20T03:53:14;4.97;;;1.10;;
22937;SDS011;11634;42.734;23.298;2022-11-20T03:55:40;2.83;;;1.33;;
22937;SDS011;11634;42.734;23.298;2022-11-20T03:58:05;2.70;;;1.23;;
22937;SDS011;11634;42.734;23.298;2022-11-20T04:00:31;4.00;;;1.08;;
22937;SDS011;11634;42.734;23.298;2022-11-20T04:03:00;5.13;;;1.73;;
22937;SDS011;11634;42.734;23.298;2022-11-20T04:05:26;6.13;;;1.60;;
22937;SDS011;11634;42.734;23.298;2022-11-20T04:07:52;2.63;;;1.23;;
22937;SDS011;11634;42.734;23.298;2022-11-20T04:10:18;2.65;;;1.27;;
22937;SDS011;11634;42.734;23.298;2022-11-20T04:12:44;3.47;;;1.25;;
22937;SDS011;11634;42.734;23.298;2022-11-20T04:15:10;4.20;;;1.42;;
22937;SDS011;11634;42.734;23.298;2022-11-20T04:17:36;3.30;;;1.40;;
22937;SDS011;11634;42.734;23.298;2022-11-20T04:20:01;5.22;;;1.25;;
22937;SDS011;11634;42.734;23.298;2022-11-20T04:22:28;3.65;;;1.30;;
22937;SDS011;11634;42.734;23.298;2022-11-20T04:24:53;2.90;;;1.08;;
22937;SDS011;11634;42.734;23.298;2022-11-20T04:27:19;5.50;;;1.27;;
22937;SDS011;11634;42.734;23.298;2022-11-20T04:29:44;2.33;;;1.17;;
22937;SDS011;11634;42.734;23.298;2022-11-20T04:32:10;2.00;;;0.90;;
22937;SDS011;11634;42.734;23.298;2022-11-20T04:34:35;4.07;;;1.27;;
22937;SDS011;11634;42.734;23.298;2022-11-20T04:37:01;2.80;;;1.02;;
22937;SDS011;11634;42.734;23.298;2022-11-20T04:39:26;2.67;;;1.30;;
22937;SDS011;11634;42.734;23.298;2022-11-20T04:41:52;3.47;;;1.27;;
22937;SDS011;11634;42.734;23.298;2022-11-20T04:44:37;1.58;;;0.80;;
22937;SDS011;11634;42.734;23.298;2022-11-20T04:47:03;2.67;;;0.93;;
22937;SDS011;11634;42.734;23.298;2022-11-20T04:49:28;3.65;;;1.23;;
22937;SDS011;11634;42.734;23.298;2022-11-20T04:51:54;2.92;;;1.55;;
22937;SDS011;11634;42.734;23.298;2022-11-20T04:54:19;3.17;;;1.30;;
22937;SDS011;11634;42.734;23.298;2022-11-20T04:56:48;5.43;;;1.20;;
22937;SDS011;11634;42.734;23.298;2022-11-20T04:59:15;2.95;;;0.82;;
22937;SDS011;11634;42.734;23.298;2022-11-20T05:01:40;3.58;;;1.10;;
22937;SDS011;11634;42.734;23.298;2022-11-20T05:04:06;6.70;;;0.80;;
22937;SDS011;11634;42.734;23.298;2022-11-20T05:06:32;2.65;;;1.13;;
22937;SDS011;11634;42.734;23.298;2022-11-20T05:08:58;1.77;;;0.85;;
22937;SDS011;11634;42.734;23.298;2022-11-20T05:11:23;5.15;;;1.25;;
22937;SDS011;11634;42.734;23.298;2022-11-20T05:13:50;2.38;;;1.02;;
22937;SDS011;11634;42.734;23.298;2022-11-20T05:16:20;1.27;;;1.00;;
22937;SDS011;11634;42.734;23.298;2022-11-20T05:18:47;2.45;;;0.98;;
22937;SDS011;11634;42.734;23.298;2022-11-20T05:21:13;2.85;;;1.10;;
22937;SDS011;11634;42.734;23.298;2022-11-20T05:23:40;2.42;;;1.05;;
22937;SDS011;11634;42.734;23.298;2022-11-20T05:26:07;3.15;;;1.10;;
22937;SDS011;11634;42.734;23.298;2022-11-20T05:28:37;3.20;;;1.20;;
22937;SDS011;11634;42.734;23.298;2022-11-20T05:31:06;2.67;;;1.02;;
22937;SDS011;11634;42.734;23.298;2022-11-20T05:33:34;4.18;;;1.23;;
22937;SDS011;11634;42.734;23.298;2022-11-20T05:36:01;3.83;;;1.20;;
22937;SDS011;11634;42.734;23.298;2022-11-20T05:38:28;1.90;;;0.70;;
22937;SDS011;11634;42.734;23.298;2022-11-20T05:40:53;4.03;;;1.15;;
22937;SDS011;11634;42.734;23.298;2022-11-20T05:43:19;2.15;;;0.77;;
22937;SDS011;11634;42.734;23.298;2022-11-20T05:45:51;4.00;;;1.98;;
22937;SDS011;11634;42.734;23.298;2022-11-20T05:48:17;3.78;;;2.20;;
22937;SDS011;11634;42.734;23.298;2022-11-20T05:50:43;3.08;;;1.10;;
22937;SDS011;11634;42.734;23.298;2022-11-20T05:53:08;2.08;;;0.82;;
22937;SDS011;11634;42.734;23.298;2022-11-20T05:55:34;3.25;;;1.50;;
22937;SDS011;11634;42.734;23.298;2022-11-20T05:57:59;3.78;;;1.95;;
22937;SDS011;11634;42.734;23.298;2022-11-20T06:00:25;6.95;;;1.67;;
22937;SDS011;11634;42.734;23.298;2022-11-20T06:02:50;1.55;;;1.00;;
22937;SDS011;11634;42.734;23.298;2022-11-20T06:05:16;3.80;;;1.02;;
22937;SDS011;11634;42.734;23.298;2022-11-20T06:07:41;1.98;;;1.05;;
22937;SDS011;11634;42.734;23.298;2022-11-20T06:10:12;3.00;;;1.38;;
22937;SDS011;11634;42.734;23.298;2022-11-20T06:12:38;5.35;;;1.40;;
22937;SDS011;11634;42.734;23.298;2022-11-20T06:15:04;3.05;;;1.45;;
22937;SDS011;11634;42.734;23.298;2022-11-20T06:17:30;4.75;;;1.42;;
22937;SDS011;11634;42.734;23.298;2022-11-20T06:19:56;4.68;;;1.80;;
22937;SDS011;11634;42.734;23.298;2022-11-20T06:22:21;3.97;;;1.35;;
22937;SDS011;11634;42.734;23.298;2022-11-20T06:24:47;3.72;;;1.23;;
22937;SDS011;11634;42.734;23.298;2022-11-20T06:27:12;2.17;;;0.90;;
22937;SDS011;11634;42.734;23.298;2022-11-20T06:29:38;2.15;;;0.73;;
22937;SDS011;11634;42.734;23.298;2022-11-20T06:32:03;6.60;;;2.08;;
22937;SDS011;11634;42.734;23.298;2022-11-20T06:34:29;1.95;;;1.00;;
22937;SDS011;11634;42.734;23.298;2022-11-20T06:36:55;3.80;;;1.23;;
22937;SDS011;11634;42.734;23.298;2022-11-20T06:39:20;3.92;;;1.20;;
22937;SDS011;11634;42.734;23.298;2022-11-20T06:41:45;3.47;;;2.35;;
22937;SDS011;11634;42.734;23.298;2022-11-20T06:44:11;3.92;;;1.13;;
22937;SDS011;11634;42.734;23.298;2022-11-20T06:46:37;2.92;;;1.63;;
22937;SDS011;11634;42.734;23.298;2022-11-20T06:49:02;7.05;;;1.83;;
22937;SDS011;11634;42.734;23.298;2022-11-20T06:51:28;3.45;;;1.60;;
22937;SDS011;11634;42.734;23.298;2022-11-20T06:53:53;4.97;;;1.83;;
22937;SDS011;11634;42.734;23.298;2022-11-20T06:56:19;5.18;;;1.70;;
22937;SDS011;11634;42.734;23.298;2022-11-20T06:58:45;3.20;;;1.55;;
22937;SDS011;11634;42.734;23.298;2022-11-20T07:01:11;2.55;;;1.40;;
22937;SDS011;11634;42.734;23.298;2022-11-20T07:03:38;3.10;;;1.90;;
22937;SDS011;11634;42.734;23.298;2022-11-20T07:06:04;5.30;;;1.50;;
22937;SDS011;11634;42.734;23.298;2022-11-20T07:08:32;5.63;;;1.75;;
22937;SDS011;11634;42.734;23.298;2022-11-20T07:10:59;2.88;;;1.15;;
22937;SDS011;11634;42.734;23.298;2022-11-20T07:13:26;7.80;;;2.03;;
22937;SDS011;11634;42.734;23.298;2022-11-20T07:15:54;5.22;;;2.47;;
22937;SDS011;11634;42.734;23.298;2022-11-20T07:18:27;5.75;;;2.20;;
22937;SDS011;11634;42.734;23.298;2022-11-20T07:20:53;6.68;;;2.50;;
22937;SDS011;11634;42.734;23.298;2022-11-20T07:23:18;4.93;;;2.03;;
22937;SDS011;11634;42.734;23.298;2022-11-20T07:25:44;6.28;;;2.15;;
22937;SDS011;11634;42.734;23.298;2022-11-20T07:28:09;6.47;;;1.83;;
22937;SDS011;11634;42.734;23.298;2022-11-20T07:30:35;4.20;;;1.80;;
22937;SDS011;11634;42.734;23.298;2022-11-20T07:33:01;5.10;;;2.15;;
22937;SDS011;11634;42.734;23.298;2022-11-20T07:35:26;9.68;;;2.20;;
22937;SDS011;11634;42.734;23.298;2022-11-20T07:37:52;4.95;;;1.50;;
22937;SDS011;11634;42.734;23.298;2022-11-20T07:40:18;7.65;;;3.80;;
22937;SDS011;11634;42.734;23.298;2022-11-20T07:42:48;6.90;;;3.22;;
22937;SDS011;11634;42.734;23.298;2022-11-20T07:45:15;5.72;;;2.90;;
22937;SDS011;11634;42.734;23.298;2022-11-20T07:47:41;8.32;;;4.60;;
22937;SDS011;11634;42.734;23.298;2022-11-20T07:50:06;4.53;;;2.63;;
22937;SDS011;11634;42.734;23.298;2022-11-20T07:52:35;6.65;;;2.50;;
22937;SDS011;11634;42.734;23.298;2022-11-20T07:55:00;4.03;;;1.70;;
22937;SDS011;11634;42.734;23.298;2022-11-20T07:57:26;3.85;;;1.20;;
22937;SDS011;11634;42.734;23.298;2022-11-20T07:59:51;7.13;;;1.95;;
22937;SDS011;11634;42.734;23.298;2022-11-20T08:02:17;3.22;;;1.50;;
22937;SDS011;11634;42.734;23.298;2022-11-20T08:04:43;7.07;;;1.20;;
22937;SDS011;11634;42.734;23.298;2022-11-20T08:07:11;5.05;;;2.25;;
22937;SDS011;11634;42.734;23.298;2022-11-20T08:09:36;5.32;;;2.20;;
22937;SDS011;11634;42.734;23.298;2022-11-20T08:12:02;4.32;;;2.00;;
22937;SDS011;11634;42.734;23.298;2022-11-20T08:14:46;5.65;;;1.50;;
22937;SDS011;11634;42.734;23.298;2022-11-20T08:17:12;4.63;;;1.35;;
22937;SDS011;11634;42.734;23.298;2022-11-20T08:19:40;4.65;;;1.67;;
22937;SDS011;11634;42.734;23.298;2022-11-20T08:22:05;4.28;;;1.40;;
22937;SDS011;11634;42.734;23.298;2022-11-20T08:24:31;5.53;;;1.58;;
22937;SDS011;11634;42.734;23.298;2022-11-20T08:27:02;5.97;;;1.75;;
22937;SDS011;11634;42.734;23.298;2022-11-20T08:29:27;7.75;;;1.98;;
22937;SDS011;11634;42.734;23.298;2022-11-20T08:31:53;5.53;;;1.92;;
22937;SDS011;11634;42.734;23.298;2022-11-20T08:34:18;3.30;;;1.00;;
22937;SDS011;11634;42.734;23.298;2022-11-20T08:36:44;9.30;;;1.58;;
22937;SDS011;11634;42.734;23.298;2022-11-20T08:39:12;4.93;;;2.05;;
22937;SDS011;11634;42.734;23.298;2022-11-20T08:41:39;8.02;;;3.10;;
22937;SDS011;11634;42.734;23.298;2022-11-20T08:44:05;9.80;;;3.15;;
22937;SDS011;11634;42.734;23.298;2022-11-20T08:49:03;7.88;;;2.50;;
22937;SDS011;11634;42.734;23.298;2022-11-20T08:51:29;5.45;;;2.22;;
22937;SDS011;11634;42.734;23.298;2022-11-20T08:53:55;10.02;;;2.25;;
22937;SDS011;11634;42.734;23.298;2022-11-20T08:56:21;9.68;;;2.20;;
22937;SDS011;11634;42.734;23.298;2022-11-20T08:58:46;6.38;;;2.10;;
22937;SDS011;11634;42.734;23.298;2022-11-20T09:01:12;5.95;;;2.10;;
22937;SDS011;11634;42.734;23.298;2022-11-20T09:03:37;6.03;;;2.50;;
22937;SDS011;11634;42.734;23.298;2022-11-20T09:06:04;5.22;;;2.40;;
22937;SDS011;11634;42.734;23.298;2022-11-20T09:08:32;6.70;;;2.50;;
22937;SDS011;11634;42.734;23.298;2022-11-20T09:10:58;5.40;;;2.10;;
22937;SDS011;11634;42.734;23.298;2022-11-20T09:13:25;5.35;;;2.40;;
22937;SDS011;11634;42.734;23.298;2022-11-20T09:15:59;6.38;;;2.55;;
22937;SDS011;11634;42.734;23.298;2022-11-20T09:18:26;6.88;;;2.35;;
22937;SDS011;11634;42.734;23.298;2022-11-20T09:20:57;9.75;;;3.28;;
22937;SDS011;11634;42.734;23.298;2022-11-20T09:23:27;4.80;;;1.88;;
22937;SDS011;11634;42.734;23.298;2022-11-20T09:25:56;7.03;;;2.90;;
22937;SDS011;11634;42.734;23.298;2022-11-20T09:28:27;10.23;;;2.72;;
22937;SDS011;11634;42.734;23.298;2022-11-20T09:30:53;8.57;;;3.17;;
22937;SDS011;11634;42.734;23.298;2022-11-20T09:33:18;7.45;;;2.83;;
22937;SDS011;11634;42.734;23.298;2022-11-20T09:35:44;7.75;;;2.65;;
22937;SDS011;11634;42.734;23.298;2022-11-20T09:38:09;7.35;;;2.58;;
22937;SDS011;11634;42.734;23.298;2022-11-20T09:40:37;5.20;;;2.40;;
22937;SDS011;11634;42.734;23.298;2022-11-20T09:46:04;6.65;;;2.90;;
22937;SDS011;11634;42.734;23.298;2022-11-20T09:51:42;6.28;;;2.28;;
22937;SDS011;11634;42.734;23.298;2022-11-20T09:54:23;5.65;;;2.00;;
22937;SDS011;11634;42.734;23.298;2022-11-20T09:56:59;8.00;;;2.20;;
22937;SDS011;11634;42.734;23.298;2022-11-20T09:59:42;5.03;;;2.08;;
22937;SDS011;11634;42.734;23.298;2022-11-20T10:04:52;6.97;;;2.53;;
22937;SDS011;11634;42.734;23.298;2022-11-20T10:30:10;6.00;;;2.15;;
22937;SDS011;11634;42.734;23.298;2022-11-20T10:33:08;9.93;;;2.90;;
22937;SDS011;11634;42.734;23.298;2022-11-20T10:35:42;6.80;;;2.70;;
22937;SDS011;11634;42.734;23.298;2022-11-20T10:38:33;9.50;;;3.20;;
22937;SDS011;11634;42.734;23.298;2022-11-20T10:41:01;14.68;;;3.45;;
22937;SDS011;11634;42.734;23.298;2022-11-20T10:43:48;6.57;;;2.78;;
22937;SDS011;11634;42.734;23.298;2022-11-20T10:46:21;11.07;;;3.17;;
22937;SDS011;11634;42.734;23.298;2022-11-20T10:48:48;13.13;;;4.32;;
22937;SDS011;11634;42.734;23.298;2022-11-20T10:59:54;7.35;;;3.92;;
22937;SDS011;11634;42.734;23.298;2022-11-20T11:05:27;7.65;;;2.97;;
22937;SDS011;11634;42.734;23.298;2022-11-20T11:08:11;2.83;;;1.15;;
22937;SDS011;11634;42.734;23.298;2022-11-20T11:15:46;4.20;;;1.63;;
22937;SDS011;11634;42.734;23.298;2022-11-20T11:18:30;2.90;;;1.40;;
22937;SDS011;11634;42.734;23.298;2022-11-20T11:21:02;2.50;;;1.20;;
22937;SDS011;11634;42.734;23.298;2022-11-20T11:23:39;2.92;;;1.40;;
22937;SDS011;11634;42.734;23.298;2022-11-20T11:26:22;2.63;;;1.40;;
22937;SDS011;11634;42.734;23.298;2022-11-20T11:28:55;2.63;;;1.25;;
22937;SDS011;11634;42.734;23.298;2022-11-20T11:31:26;4.18;;;1.30;;
22937;SDS011;11634;42.734;23.298;2022-11-20T11:34:15;2.58;;;1.30;;
22937;SDS011;11634;42.734;23.298;2022-11-20T11:36:49;4.43;;;1.75;;
22937;SDS011;11634;42.734;23.298;2022-11-20T11:39:22;3.25;;;1.23;;
22937;SDS011;11634;42.734;23.298;2022-11-20T11:41:50;5.63;;;1.58;;
22937;SDS011;11634;42.734;23.298;2022-11-20T11:44:17;2.35;;;1.50;;
22937;SDS011;11634;42.734;23.298;2022-11-20T11:47:02;5.38;;;1.73;;
22937;SDS011;11634;42.734;23.298;2022-11-20T11:49:31;5.05;;;2.78;;
22937;SDS011;11634;42.734;23.298;2022-11-20T11:52:17;4.10;;;1.45;;
22937;SDS011;11634;42.734;23.298;2022-11-20T11:54:50;3.60;;;2.33;;
22937;SDS011;11634;42.734;23.298;2022-11-20T12:00:08;6.13;;;3.03;;
22937;SDS011;11634;42.734;23.298;2022-11-20T12:07:47;3.88;;;1.73;;
22937;SDS011;11634;42.734;23.298;2022-11-20T12:13:04;3.55;;;1.70;;
22937;SDS011;11634;42.734;23.298;2022-11-20T12:15:40;5.53;;;1.90;;
22937;SDS011;11634;42.734;23.298;2022-11-20T12:18:19;2.40;;;1.40;;
22937;SDS011;11634;42.734;23.298;2022-11-20T12:21:00;8.55;;;2.05;;
22937;SDS011;11634;42.734;23.298;2022-11-20T12:29:11;5.97;;;2.03;;
22937;SDS011;11634;42.734;23.298;2022-11-20T12:43:34;13.55;;;9.13;;
22937;SDS011;11634;42.734;23.298;2022-11-20T12:46:29;4.53;;;2.30;;
22937;SDS011;11634;42.734;23.298;2022-11-20T12:49:20;5.20;;;1.52;;
22937;SDS011;11634;42.734;23.298;2022-11-20T12:52:10;6.47;;;1.65;;
22937;SDS011;11634;42.734;23.298;2022-11-20T13:00:19;4.30;;;1.27;;
22937;SDS011;11634;42.734;23.298;2022-11-20T13:08:36;4.82;;;2.22;;
22937;SDS011;11634;42.734;23.298;2022-11-20T13:17:20;6.28;;;3.20;;
22937;SDS011;11634;42.734;23.298;2022-11-20T13:20:05;6.97;;;3.50;;
22937;SDS011;11634;42.734;23.298;2022-11-20T13:22:50;5.70;;;3.10;;
22937;SDS011;11634;42.734;23.298;2022-11-20T13:25:38;7.70;;;2.67;;
22937;SDS011;11634;42.734;23.298;2022-11-20T13:30:36;4.88;;;2.95;;
22937;SDS011;11634;42.734;23.298;2022-11-20T13:33:25;2.20;;;1.55;;
22937;SDS011;11634;42.734;23.298;2022-11-20T13:35:57;4.03;;;2.15;;
22937;SDS011;11634;42.734;23.298;2022-11-20T13:38:25;5.00;;;2.47;;
22937;SDS011;11634;42.734;23.298;2022-11-20T13:40:52;5.13;;;2.08;;
22937;SDS011;11634;42.734;23.298;2022-11-20T13:45:56;4.55;;;2.30;;
22937;SDS011;11634;42.734;23.298;2022-11-20T13:48:29;7.35;;;2.60;;
22937;SDS011;11634;42.734;23.298;2022-11-20T13:54:03;5.47;;;2.70;;
22937;SDS011;11634;42.734;23.298;2022-11-20T13:59:46;6.20;;;2.55;;
22937;SDS011;11634;42.734;23.298;2022-11-20T14:02:36;7.30;;;2.60;;
22937;SDS011;11634;42.734;23.298;2022-11-20T14:05:02;5.63;;;2.83;;
22937;SDS011;11634;42.734;23.298;2022-11-20T14:07:36;4.88;;;2.47;;
22937;SDS011;11634;42.734;23.298;2022-11-20T14:10:06;4.93;;;2.63;;
22937;SDS011;11634;42.734;23.298;2022-11-20T14:12:44;7.72;;;2.70;;
22937;SDS011;11634;42.734;23.298;2022-11-20T14:15:23;5.45;;;3.13;;
22937;SDS011;11634;42.734;23.298;2022-11-20T14:17:51;5.07;;;3.33;;
22937;SDS011;11634;42.734;23.298;2022-11-20T14:20:16;3.00;;;2.03;;
22937;SDS011;11634;42.734;23.298;2022-11-20T14:22:48;3.92;;;2.45;;
22937;SDS011;11634;42.734;23.298;2022-11-20T14:27:41;4.60;;;2.72;;
22937;SDS011;11634;42.734;23.298;2022-11-20T14:30:12;2.72;;;1.70;;
22937;SDS011;11634;42.734;23.298;2022-11-20T14:32:41;4.80;;;2.35;;
22937;SDS011;11634;42.734;23.298;2022-11-20T14:35:08;4.53;;;1.58;;
22937;SDS011;11634;42.734;23.298;2022-11-20T14:37:38;2.90;;;1.80;;
22937;SDS011;11634;42.734;23.298;2022-11-20T14:40:51;3.33;;;1.45;;
22937;SDS011;11634;42.734;23.298;2022-11-20T14:43:01;2.65;;;1.33;;
22937;SDS011;11634;42.734;23.298;2022-11-20T14:45:40;5.30;;;1.52;;
22937;SDS011;11634;42.734;23.298;2022-11-20T14:48:08;5.75;;;1.83;;
22937;SDS011;11634;42.734;23.298;2022-11-20T14:50:35;3.58;;;1.90;;
22937;SDS011;11634;42.734;23.298;2022-11-20T14:53:03;4.30;;;1.88;;
22937;SDS011;11634;42.734;23.298;2022-11-20T14:55:37;3.22;;;1.50;;
22937;SDS011;11634;42.734;23.298;2022-11-20T14:58:04;5.80;;;1.88;;
22937;SDS011;11634;42.734;23.298;2022-11-20T15:00:32;4.70;;;2.03;;
22937;SDS011;11634;42.734;23.298;2022-11-20T15:02:59;2.40;;;1.42;;
22937;SDS011;11634;42.734;23.298;2022-11-20T15:05:26;3.10;;;1.20;;
22937;SDS011;11634;42.734;23.298;2022-11-20T15:08:10;2.35;;;1.20;;
22937;SDS011;11634;42.734;23.298;2022-11-20T15:10:50;1.45;;;1.00;;
22937;SDS011;11634;42.734;23.298;2022-11-20T15:15:55;3.33;;;1.50;;
22937;SDS011;11634;42.734;23.298;2022-11-20T15:18:32;6.43;;;3.22;;
22937;SDS011;11634;42.734;23.298;2022-11-20T15:21:03;8.38;;;4.97;;
22937;SDS011;11634;42.734;23.298;2022-11-20T15:23:35;9.10;;;6.13;;
22937;SDS011;11634;42.734;23.298;2022-11-20T15:26:00;10.30;;;6.20;;
22937;SDS011;11634;42.734;23.298;2022-11-20T15:28:27;6.70;;;3.75;;
22937;SDS011;11634;42.734;23.298;2022-11-20T15:30:56;7.43;;;3.72;;
22937;SDS011;11634;42.734;23.298;2022-11-20T15:33:21;4.75;;;3.28;;
22937;SDS011;11634;42.734;23.298;2022-11-20T15:35:47;5.28;;;3.20;;
22937;SDS011;11634;42.734;23.298;2022-11-20T15:38:13;9.48;;;4.18;;
22937;SDS011;11634;42.734;23.298;2022-11-20T15:40:38;6.70;;;3.63;;
22937;SDS011;11634;42.734;23.298;2022-11-20T15:43:04;8.43;;;3.17;;
22937;SDS011;11634;42.734;23.298;2022-11-20T15:45:43;2.58;;;1.65;;
22937;SDS011;11634;42.734;23.298;2022-11-20T15:48:14;4.50;;;3.05;;
22937;SDS011;11634;42.734;23.298;2022-11-20T15:53:13;4.03;;;2.13;;
22937;SDS011;11634;42.734;23.298;2022-11-20T15:55:39;4.75;;;1.73;;
22937;SDS011;11634;42.734;23.298;2022-11-20T15:58:04;3.13;;;1.80;;
22937;SDS011;11634;42.734;23.298;2022-11-20T16:00:30;3.97;;;1.73;;
22937;SDS011;11634;42.734;23.298;2022-11-20T16:02:56;3.42;;;2.28;;
22937;SDS011;11634;42.734;23.298;2022-11-20T16:05:21;3.85;;;2.22;;
22937;SDS011;11634;42.734;23.298;2022-11-20T16:07:48;4.88;;;2.22;;
22937;SDS011;11634;42.734;23.298;2022-11-20T16:10:20;4.30;;;2.40;;
22937;SDS011;11634;42.734;23.298;2022-11-20T16:12:46;4.00;;;1.90;;
22937;SDS011;11634;42.734;23.298;2022-11-20T16:15:30;3.85;;;1.52;;
22937;SDS011;11634;42.734;23.298;2022-11-20T16:18:12;3.05;;;1.85;;
22937;SDS011;11634;42.734;23.298;2022-11-20T16:20:46;2.83;;;2.03;;
22937;SDS011;11634;42.734;23.298;2022-11-20T16:23:20;3.55;;;1.65;;
22937;SDS011;11634;42.734;23.298;2022-11-20T16:25:46;2.80;;;1.90;;
22937;SDS011;11634;42.734;23.298;2022-11-20T16:28:12;4.45;;;2.17;;
22937;SDS011;11634;42.734;23.298;2022-11-20T16:30:41;2.63;;;1.90;;
22937;SDS011;11634;42.734;23.298;2022-11-20T16:33:10;4.13;;;1.50;;
22937;SDS011;11634;42.734;23.298;2022-11-20T16:35:37;4.45;;;2.63;;
22937;SDS011;11634;42.734;23.298;2022-11-20T16:38:03;4.75;;;3.58;;
22937;SDS011;11634;42.734;23.298;2022-11-20T16:40:28;5.03;;;3.47;;
22937;SDS011;11634;42.734;23.298;2022-11-20T16:42:57;5.53;;;3.90;;
22937;SDS011;11634;42.734;23.298;2022-11-20T16:45:25;4.60;;;4.03;;
22937;SDS011;11634;42.734;23.298;2022-11-20T16:47:51;8.15;;;4.63;;
22937;SDS011;11634;42.734;23.298;2022-11-20T16:50:17;5.88;;;4.10;;